»·PEaware :: SKY811 KPRC-KHII

SKY811 :: KPRC-KHII

FLIGHT INFORMATION

Flight Status: Arrived
Operator:
Sky High Charters
More flights by this operator :: More flights under this callsign
Pilot: Ciprian B. (43830)
Aircraft: CIRRUS VISIONJET
(SF50)
More flights by this aircraft type
Origin: KPRC Love
United States
Destination: KHII Lake Havasu City
United States
More flights between these airports :: More routes between these airports
Route: WNSKI2 MUMTE V12 EED
File this flight plan on PilotEdge
Remarks:
Altitude:
(Current/Filed)
14,000ft
Speed:
(Current/Filed)
200kts
Departed: 12-Aug-23 11:07 AM
Arrived: 12-Aug-23 12:20 PM
Distance/Time
Traveled:
96nm/1:12
Distance/Time
To Go:
Arrived

Flight Plot

Page will automatically refresh every two minutes.

Flight plan parsing failed; only flown route is shown


Map Options




Map Legend


Flown Route
Filed Route
Departure Airport
Arrival Airport
Navaid (VOR, NDB)
Fix

Horizontal Profiles

Position Reports

Time Latitude Longitude Heading Altitude Ground
Speed
12-Aug-23 10:52 34.653856 -112.422587 130 4993ft 0kts
12-Aug-23 10:53 34.653856 -112.422587 130 4993ft 0kts
12-Aug-23 10:54 34.653856 -112.422587 130 4993ft 0kts
12-Aug-23 10:55 34.653856 -112.422587 130 4993ft 0kts
12-Aug-23 10:56 34.653856 -112.422587 130 4993ft 0kts
12-Aug-23 10:57 34.653856 -112.422587 130 4993ft 0kts
12-Aug-23 10:58 34.653856 -112.422587 130 4993ft 0kts
12-Aug-23 10:59 34.653856 -112.422587 130 4993ft 0kts
12-Aug-23 11:00 34.653856 -112.422587 130 4993ft 0kts
12-Aug-23 11:01 34.653856 -112.422587 130 4993ft 0kts
12-Aug-23 11:02 34.653609 -112.422643 213 4994ft 14kts
12-Aug-23 11:03 34.654275 -112.421185 40 4992ft 40kts
12-Aug-23 11:04 34.662592 -112.412478 49 4946ft 14kts
12-Aug-23 11:05 34.662662 -112.412311 87 4945ft 0kts
12-Aug-23 11:06 34.657932 -112.415759 221 4968ft 95kts
12-Aug-23 11:07 34.649614 -112.443838 358 7053ft 131kts
12-Aug-23 11:08 34.656834 -112.409485 144 9219ft 163kts
12-Aug-23 11:17 34.655207 -112.421352 169 4987ft 0kts
12-Aug-23 11:18 34.655207 -112.421352 169 4987ft 0kts
12-Aug-23 11:20 34.655313 -112.421521 37 4986ft 0kts
12-Aug-23 11:21 34.655313 -112.421521 37 4986ft 0kts
12-Aug-23 11:22 34.655313 -112.421521 37 4986ft 0kts
12-Aug-23 11:23 34.655313 -112.421521 37 4986ft 0kts
12-Aug-23 11:24 34.655313 -112.421521 37 4986ft 0kts
12-Aug-23 11:25 34.655313 -112.421521 37 4986ft 0kts
12-Aug-23 11:26 34.655313 -112.421521 37 4986ft 0kts
12-Aug-23 11:27 34.655905 -112.419410 40 4981ft 21kts
12-Aug-23 11:28 34.661728 -112.413265 43 4948ft 29kts
12-Aug-23 11:29 34.662656 -112.412306 101 4945ft 0kts
12-Aug-23 11:30 34.661006 -112.412560 222 4950ft 40kts
12-Aug-23 11:31 34.640491 -112.433455 220 5966ft 130kts
12-Aug-23 11:32 34.629846 -112.414216 61 7841ft 154kts
12-Aug-23 11:33 34.622761 -112.369217 130 10005ft 149kts
12-Aug-23 11:34 34.596800 -112.333454 131 12202ft 125kts
12-Aug-23 11:35 34.574745 -112.302851 131 13845ft 122kts
12-Aug-23 11:36 34.542221 -112.267025 169 14006ft 191kts
12-Aug-23 11:37 34.499430 -112.304761 233 14001ft 213kts
12-Aug-23 11:38 34.469407 -112.369552 248 14001ft 230kts
12-Aug-23 11:39 34.453591 -112.445941 263 13999ft 236kts
12-Aug-23 11:40 34.454723 -112.525231 278 13999ft 237kts
12-Aug-23 11:42 34.472930 -112.601715 293 13999ft 237kts
12-Aug-23 11:43 34.506854 -112.669658 308 13999ft 237kts
12-Aug-23 11:44 34.554266 -112.724709 323 13999ft 237kts
12-Aug-23 11:45 34.611929 -112.763017 338 13999ft 237kts
12-Aug-23 11:46 34.675661 -112.781955 350 13999ft 237kts
12-Aug-23 11:47 34.716315 -112.836768 274 14001ft 236kts
12-Aug-23 11:48 34.719195 -112.916673 272 14000ft 237kts
12-Aug-23 11:49 34.722007 -112.996770 272 13999ft 237kts
12-Aug-23 11:50 34.724798 -113.076880 272 14000ft 237kts
12-Aug-23 11:51 34.727517 -113.157003 272 13999ft 237kts
12-Aug-23 11:52 34.730248 -113.237057 272 14000ft 237kts
12-Aug-23 11:53 34.732926 -113.317121 272 13999ft 237kts
12-Aug-23 11:54 34.735553 -113.397272 272 14000ft 237kts
12-Aug-23 11:55 34.738121 -113.477251 272 13963ft 231kts
12-Aug-23 11:56 34.740312 -113.544529 272 13234ft 180kts
12-Aug-23 11:57 34.742174 -113.602835 272 12528ft 170kts
12-Aug-23 11:58 34.744027 -113.663869 271 11839ft 190kts
12-Aug-23 11:59 34.745982 -113.730218 271 11146ft 202kts
12-Aug-23 12:00 34.747965 -113.796650 271 10998ft 188kts
12-Aug-23 12:01 34.749948 -113.863628 271 11005ft 226kts
12-Aug-23 12:02 34.752205 -113.945153 271 11000ft 251kts
12-Aug-23 12:03 34.754556 -114.030912 271 11000ft 256kts
12-Aug-23 12:04 34.756802 -114.113968 271 10999ft 238kts
12-Aug-23 12:05 34.758851 -114.191297 271 10622ft 223kts
12-Aug-23 12:05 34.760461 -114.253846 271 9956ft 222kts
12-Aug-23 12:07 34.761505 -114.338785 273 9295ft 217kts
12-Aug-23 12:08 34.764809 -114.411081 273 8397ft 213kts
12-Aug-23 12:09 34.770351 -114.481942 301 7482ft 211kts
12-Aug-23 12:10 34.809035 -114.532460 321 6996ft 193kts
12-Aug-23 12:10 34.843150 -114.524502 62 6999ft 170kts
12-Aug-23 12:11 34.820436 -114.488567 166 6999ft 158kts
12-Aug-23 12:13 34.771224 -114.475350 167 6999ft 152kts
12-Aug-23 12:14 34.724481 -114.458255 157 5553ft 195kts
12-Aug-23 12:15 34.680900 -114.440495 162 3778ft 157kts
12-Aug-23 12:15 34.652654 -114.424682 133 3085ft 99kts
12-Aug-23 12:16 34.631254 -114.405612 148 2418ft 97kts
12-Aug-23 12:18 34.607474 -114.385010 139 1674ft 82kts
12-Aug-23 12:18 34.590506 -114.372076 151 1303ft 89kts
12-Aug-23 12:19 34.574317 -114.361225 239 756ft 16kts
12-Aug-23 12:20 34.574136 -114.362609 19 747ft 0kts
12-Aug-23 12:21 34.574136 -114.362609 19 747ft 0kts
12-Aug-23 12:22 34.574135 -114.362609 15 747ft 0kts
12-Aug-23 12:23 34.574135 -114.362609 15 747ft 0kts
12-Aug-23 12:24 34.574135 -114.362609 15 747ft 0kts

Navigation Log

Ident Type
Flight plan parsing failed, navigation log unavailable